createdAt,value
2023-02-15T00:01:49.899Z,99722.19
2023-02-15T00:04:20.343Z,99732.06
2023-02-15T00:06:46.988Z,99734.91
2023-02-15T00:09:14.258Z,99737.63
2023-02-15T00:11:41.126Z,99734.09
2023-02-15T00:14:10.704Z,99736.00
2023-02-15T00:16:38.769Z,99732.25
2023-02-15T00:19:06.120Z,99732.34
2023-02-15T00:21:34.012Z,99738.59
2023-02-15T00:24:02.597Z,99727.28
2023-02-15T00:26:30.225Z,99728.28
2023-02-15T00:28:59.482Z,99723.94
2023-02-15T00:31:28.700Z,99724.94
2023-02-15T00:33:56.223Z,99718.91
2023-02-15T00:36:22.879Z,99717.13
2023-02-15T00:38:49.648Z,99725.16
2023-02-15T00:41:17.196Z,99721.69
2023-02-15T00:43:43.837Z,99712.94
2023-02-15T00:46:10.684Z,99710.47
2023-02-15T00:48:39.956Z,99720.06
2023-02-15T00:51:06.957Z,99712.00
2023-02-15T00:53:33.828Z,99722.63
2023-02-15T00:56:01.021Z,99713.94
2023-02-15T00:58:27.889Z,99722.59
2023-02-15T01:00:54.638Z,99719.75
2023-02-15T01:03:23.804Z,99714.56
2023-02-15T01:05:50.669Z,99715.41
2023-02-15T01:08:17.489Z,99720.47
2023-02-15T01:10:46.770Z,99713.50
2023-02-15T01:13:14.680Z,99710.03
2023-02-15T01:15:43.973Z,99711.63
2023-02-15T01:18:11.692Z,99707.00
2023-02-15T01:20:42.030Z,99716.28
2023-02-15T01:23:09.756Z,99721.53
2023-02-15T01:25:37.375Z,99710.16
2023-02-15T01:28:04.493Z,99704.78
2023-02-15T01:30:33.427Z,99703.03
2023-02-15T01:33:01.651Z,99703.03
2023-02-15T01:35:31.242Z,99706.50
2023-02-15T01:37:57.902Z,99703.88
2023-02-15T01:40:26.134Z,99693.22
2023-02-15T01:42:54.323Z,99689.94
2023-02-15T01:45:32.191Z,99696.19
2023-02-15T01:48:07.205Z,99692.16
2023-02-15T01:50:41.938Z,99686.97
2023-02-15T01:53:33.289Z,99685.91
2023-02-15T01:56:05.103Z,99691.69
2023-02-15T01:58:34.777Z,99683.16
2023-02-15T02:01:04.899Z,99679.75
2023-02-15T02:03:50.511Z,99682.38
2023-02-15T02:06:18.376Z,99677.28
2023-02-15T02:08:45.627Z,99676.56
2023-02-15T02:11:13.882Z,99681.72
2023-02-15T02:13:42.624Z,99688.75
2023-02-15T02:16:25.795Z,99678.34
2023-02-15T02:19:20.977Z,99682.56
2023-02-15T02:22:05.858Z,99677.22
2023-02-15T02:24:48.258Z,99673.53
2023-02-15T02:27:31.132Z,99684.81
2023-02-15T02:30:25.355Z,99677.16
2023-02-15T02:33:14.092Z,99672.09
2023-02-15T02:36:03.843Z,99662.28
2023-02-15T02:38:45.236Z,99665.63
2023-02-15T02:41:23.675Z,99658.72
2023-02-15T02:44:13.267Z,99664.13
2023-02-15T02:46:39.922Z,99659.59
2023-02-15T02:49:06.671Z,99676.84
2023-02-15T02:51:33.451Z,99669.78
2023-02-15T02:54:04.467Z,99655.91
2023-02-15T02:56:48.412Z,99663.88
2023-02-15T02:59:21.630Z,99650.97
2023-02-15T03:01:54.235Z,99653.41
2023-02-15T03:04:29.644Z,99648.88
2023-02-15T03:07:03.747Z,99650.44
2023-02-15T03:09:43.823Z,99652.56
2023-02-15T03:12:28.288Z,99641.97
2023-02-15T03:15:06.007Z,99647.03
2023-02-15T03:17:34.802Z,99642.75
2023-02-15T03:20:08.226Z,99643.63
2023-02-15T03:22:40.424Z,99643.88
2023-02-15T03:25:20.579Z,99641.41
2023-02-15T03:27:52.191Z,99643.16
2023-02-15T03:30:22.803Z,99658.22
2023-02-15T03:32:51.836Z,99651.41
2023-02-15T03:35:24.063Z,99645.41
2023-02-15T03:38:02.598Z,99647.53
2023-02-15T03:40:51.474Z,99642.06
2023-02-15T03:43:39.879Z,99636.94
2023-02-15T03:46:21.628Z,99625.22
2023-02-15T03:48:54.185Z,99628.66
2023-02-15T03:51:37.216Z,99627.56
2023-02-15T03:54:44.881Z,99623.00
2023-02-15T03:57:41.484Z,99631.44
2023-02-15T04:00:41.076Z,99631.84
2023-02-15T04:03:20.955Z,99634.22
2023-02-15T04:05:47.641Z,99629.03
2023-02-15T04:08:14.501Z,99626.28
2023-02-15T04:10:53.212Z,99630.00
2023-02-15T04:13:21.226Z,99628.09
2023-02-15T04:16:07.046Z,99626.16
2023-02-15T04:18:58.020Z,99640.25
2023-02-15T04:21:45.011Z,99633.84
2023-02-15T04:24:31.325Z,99635.31
2023-02-15T04:26:58.999Z,99640.81
2023-02-15T04:29:26.510Z,99643.63
2023-02-15T04:31:55.060Z,99653.28
2023-02-15T04:34:22.131Z,99650.66
2023-02-15T04:36:48.844Z,99661.91
2023-02-15T04:39:16.324Z,99658.44
2023-02-15T04:41:43.475Z,99659.44
2023-02-15T04:44:10.540Z,99661.16
2023-02-15T04:46:37.923Z,99660.41
2023-02-15T04:49:05.000Z,99660.44
2023-02-15T04:51:31.744Z,99659.78
2023-02-15T04:53:58.420Z,99656.28
2023-02-15T04:56:25.230Z,99648.56
2023-02-15T04:58:51.953Z,99644.84
2023-02-15T05:01:18.830Z,99642.13
2023-02-15T05:03:45.532Z,99653.97
2023-02-15T05:06:12.220Z,99652.97
2023-02-15T05:08:38.845Z,99653.38
2023-02-15T05:11:05.492Z,99657.00
2023-02-15T05:13:32.192Z,99653.63
2023-02-15T05:15:58.949Z,99665.09
2023-02-15T05:18:25.810Z,99665.84
2023-02-15T05:20:52.555Z,99667.72
2023-02-15T05:23:19.285Z,99673.16
2023-02-15T05:26:08.785Z,99666.41
2023-02-15T05:28:36.809Z,99670.63
2023-02-15T05:31:08.445Z,99663.03
2023-02-15T05:33:35.364Z,99661.03
2023-02-15T05:36:03.337Z,99668.63
2023-02-15T05:38:30.467Z,99662.00
2023-02-15T05:40:57.724Z,99655.28
2023-02-15T05:43:25.286Z,99670.66
2023-02-15T05:45:53.903Z,99673.25
2023-02-15T05:48:23.224Z,99670.00
2023-02-15T05:51:04.768Z,99662.44
2023-02-15T05:53:33.770Z,99669.63
2023-02-15T05:56:01.624Z,99673.06
2023-02-15T05:58:37.766Z,99664.13
2023-02-15T06:01:18.427Z,99673.09
2023-02-15T06:03:46.527Z,99675.81
2023-02-15T06:06:13.527Z,99669.03
2023-02-15T06:08:40.373Z,99673.28
2023-02-15T06:11:07.853Z,99672.28
2023-02-15T06:13:38.330Z,99678.19
2023-02-15T06:16:06.589Z,99675.13
2023-02-15T06:18:33.602Z,99674.31
2023-02-15T06:21:00.491Z,99682.44
2023-02-15T06:23:27.196Z,99677.28
2023-02-15T06:25:54.260Z,99680.78
2023-02-15T06:28:21.094Z,99676.19
2023-02-15T06:30:47.957Z,99674.22
2023-02-15T06:33:14.726Z,99680.72
2023-02-15T06:35:41.489Z,99677.59
2023-02-15T06:38:08.661Z,99679.63
2023-02-15T06:40:35.339Z,99675.19
2023-02-15T06:43:01.993Z,99686.47
2023-02-15T06:45:28.760Z,99685.88
2023-02-15T06:47:55.433Z,99683.19
2023-02-15T06:50:22.274Z,99685.78
2023-02-15T06:52:49.018Z,99680.63
2023-02-15T06:55:15.810Z,99682.22
2023-02-15T06:57:42.555Z,99689.25
2023-02-15T07:00:09.876Z,99686.16
2023-02-15T07:02:36.520Z,99684.41
2023-02-15T07:05:05.102Z,99682.34
2023-02-15T07:07:31.767Z,99684.59
2023-02-15T07:09:58.430Z,99682.97
2023-02-15T07:12:43.531Z,99680.44
2023-02-15T07:15:16.150Z,99674.88
2023-02-15T07:17:43.634Z,99681.19
2023-02-15T07:20:12.053Z,99665.53
2023-02-15T07:22:39.110Z,99668.53
2023-02-15T07:25:08.220Z,99661.25
2023-02-15T07:27:35.186Z,99655.06
2023-02-15T07:30:02.259Z,99655.94
2023-02-15T07:32:33.117Z,99656.38
2023-02-15T07:35:00.815Z,99650.25
2023-02-15T07:37:28.667Z,99653.13
2023-02-15T07:39:55.367Z,99657.88
2023-02-15T07:42:22.989Z,99652.44
2023-02-15T07:44:50.010Z,99650.81
2023-02-15T07:47:16.745Z,99648.41
2023-02-15T07:49:43.431Z,99646.44
2023-02-15T07:52:10.219Z,99648.19
2023-02-15T07:54:36.849Z,99641.63
2023-02-15T07:57:03.596Z,99634.50
2023-02-15T07:59:30.269Z,99632.28
2023-02-15T08:01:58.105Z,99640.81
2023-02-15T08:04:25.104Z,99639.25
2023-02-15T08:06:55.099Z,99633.78
2023-02-15T08:09:22.634Z,99644.72
2023-02-15T08:11:49.528Z,99645.81
2023-02-15T08:14:21.335Z,99638.53
2023-02-15T08:16:48.241Z,99637.84
2023-02-15T08:19:25.558Z,99642.72
2023-02-15T08:21:54.821Z,99643.19
2023-02-15T08:24:23.892Z,99634.13
2023-02-15T08:26:51.756Z,99634.13
2023-02-15T08:29:21.071Z,99637.78
2023-02-15T08:31:48.796Z,99634.84
2023-02-15T08:34:18.570Z,99635.09
2023-02-15T08:36:48.618Z,99623.59
2023-02-15T08:39:16.817Z,99628.22
2023-02-15T08:41:46.341Z,99630.28
2023-02-15T08:44:13.679Z,99622.06
2023-02-15T08:46:42.922Z,99632.66
2023-02-15T08:49:11.096Z,99627.03
2023-02-15T08:51:39.568Z,99619.63
2023-02-15T08:54:10.276Z,99620.75
2023-02-15T08:56:39.233Z,99630.56
2023-02-15T08:59:07.693Z,99621.88
2023-02-15T09:01:35.857Z,99628.13
2023-02-15T09:04:09.589Z,99632.22
2023-02-15T09:06:40.659Z,99629.22
2023-02-15T09:09:08.682Z,99621.31
2023-02-15T09:11:38.666Z,99619.47
2023-02-15T09:14:10.006Z,99612.69
2023-02-15T09:16:38.639Z,99602.38
2023-02-15T09:19:06.326Z,99593.91
2023-02-15T09:21:36.013Z,99580.41
2023-02-15T09:24:08.969Z,99569.09
2023-02-15T09:26:38.248Z,99579.63
2023-02-15T09:29:05.072Z,99569.88
2023-02-15T09:31:45.218Z,99551.44
2023-02-15T09:34:14.332Z,99526.28
2023-02-15T09:36:42.182Z,99517.25
2023-02-15T09:39:13.629Z,99508.59
2023-02-15T09:41:52.678Z,99518.34
2023-02-15T09:44:40.673Z,99525.91
2023-02-15T09:47:18.934Z,99530.56
2023-02-15T09:50:20.862Z,99554.31
2023-02-15T09:53:00.121Z,99562.31
2023-02-15T09:55:48.724Z,99578.78
2023-02-15T09:58:33.410Z,99576.50
2023-02-15T10:01:22.687Z,99575.25
2023-02-15T10:04:23.555Z,99576.19
2023-02-15T10:07:05.267Z,99561.06
2023-02-15T10:09:32.255Z,99547.59
2023-02-15T10:12:30.201Z,99535.81
2023-02-15T10:14:59.554Z,99523.91
2023-02-15T10:17:45.233Z,99521.19
2023-02-15T10:20:37.188Z,99512.09
2023-02-15T10:23:12.482Z,99514.94
2023-02-15T10:25:58.917Z,99504.09
2023-02-15T10:28:40.846Z,99520.31
2023-02-15T10:31:22.106Z,99518.56
2023-02-15T10:33:56.230Z,99530.16
2023-02-15T10:36:55.274Z,99509.00
2023-02-15T10:39:43.712Z,99525.06
2023-02-15T10:42:53.097Z,99524.03
2023-02-15T10:45:41.152Z,99510.19
2023-02-15T10:48:23.214Z,99513.81
2023-02-15T10:50:53.652Z,99502.44
2023-02-15T10:53:27.354Z,99502.78
2023-02-15T10:56:08.191Z,99494.97
2023-02-15T10:58:46.823Z,99488.13
2023-02-15T11:01:23.599Z,99490.78
2023-02-15T11:04:08.885Z,99468.97
2023-02-15T11:06:40.629Z,99472.72
2023-02-15T11:09:13.967Z,99467.97
2023-02-15T11:11:44.650Z,99462.25
2023-02-15T11:14:14.099Z,99461.91
2023-02-15T11:16:47.365Z,99457.59
2023-02-15T11:19:17.050Z,99452.03
2023-02-15T11:21:50.774Z,99455.84
2023-02-15T11:24:23.478Z,99451.88
2023-02-15T11:27:13.464Z,99447.41
2023-02-15T11:29:49.948Z,99446.53
2023-02-15T11:32:30.712Z,99447.59
2023-02-15T11:35:06.349Z,99443.38
2023-02-15T11:37:54.551Z,99439.88
2023-02-15T11:40:25.753Z,99429.81
2023-02-15T11:42:57.003Z,99421.50
2023-02-15T11:45:32.387Z,99422.97
2023-02-15T11:48:00.382Z,99425.63
2023-02-15T11:50:31.695Z,99416.34
2023-02-15T11:53:04.690Z,99411.91
2023-02-15T11:55:31.982Z,99412.72
2023-02-15T11:58:05.680Z,99415.91
2023-02-15T12:00:40.290Z,99410.72
2023-02-15T12:03:21.417Z,99408.28
2023-02-15T12:05:54.407Z,99403.88
2023-02-15T12:08:22.654Z,99399.59
2023-02-15T12:11:03.997Z,99402.91
2023-02-15T12:13:31.138Z,99391.72
2023-02-15T12:16:00.353Z,99391.63
2023-02-15T12:18:45.216Z,99391.78
2023-02-15T12:21:29.395Z,99398.78
2023-02-15T12:24:05.048Z,99393.78
2023-02-15T12:26:35.471Z,99389.44
2023-02-15T12:29:13.652Z,99394.97
2023-02-15T12:31:44.588Z,99404.56
2023-02-15T12:34:40.542Z,99403.66
2023-02-15T12:37:29.406Z,99410.81
2023-02-15T12:39:58.774Z,99399.84
2023-02-15T12:42:27.066Z,99407.09
2023-02-15T12:44:53.835Z,99407.44
2023-02-15T12:47:21.526Z,99405.88
2023-02-15T12:50:12.609Z,99411.25
2023-02-15T12:52:40.162Z,99406.25
2023-02-15T12:55:33.055Z,99412.13
2023-02-15T12:58:21.487Z,99400.94
2023-02-15T13:00:48.440Z,99404.78
2023-02-15T13:03:24.924Z,99405.81
2023-02-15T13:05:57.675Z,99414.81
2023-02-15T13:08:53.806Z,99401.25
2023-02-15T13:11:25.749Z,99418.28
2023-02-15T13:13:56.902Z,99413.44
2023-02-15T13:16:36.427Z,99412.28
2023-02-15T13:19:11.315Z,99407.19
2023-02-15T13:21:41.104Z,99402.84
2023-02-15T13:24:25.169Z,99411.25
2023-02-15T13:27:03.513Z,99392.44
2023-02-15T13:29:40.815Z,99398.66
2023-02-15T13:32:26.896Z,99390.56
2023-02-15T13:34:57.981Z,99387.31
2023-02-15T13:37:48.117Z,99384.91
2023-02-15T13:40:33.830Z,99379.19
2023-02-15T13:43:03.135Z,99375.09
2023-02-15T13:45:54.401Z,99375.25
2023-02-15T13:48:50.849Z,99366.00
2023-02-15T13:51:39.006Z,99373.47
2023-02-15T13:54:30.360Z,99378.19
2023-02-15T13:57:15.751Z,99377.28
2023-02-15T14:00:05.630Z,99387.06
2023-02-15T14:02:55.317Z,99379.28
2023-02-15T14:05:23.587Z,99387.19
2023-02-15T14:08:09.800Z,99382.19
2023-02-15T14:11:09.342Z,99378.72
2023-02-15T14:14:11.526Z,99373.72
2023-02-15T14:17:16.155Z,99372.06
2023-02-15T14:19:52.741Z,99379.06
2023-02-15T14:22:25.997Z,99380.19
2023-02-15T14:25:06.367Z,99377.50
2023-02-15T14:27:53.874Z,99385.59
2023-02-15T14:30:27.602Z,99379.13
2023-02-15T14:33:00.680Z,99379.53
2023-02-15T14:35:30.162Z,99372.19
2023-02-15T14:38:13.055Z,99369.06
2023-02-15T14:41:05.021Z,99365.88
2023-02-15T14:43:57.069Z,99371.59
2023-02-15T14:46:37.604Z,99376.47
2023-02-15T14:49:15.098Z,99372.06
2023-02-15T14:51:44.808Z,99370.47
2023-02-15T14:54:18.281Z,99375.34
2023-02-15T14:56:46.037Z,99367.91
2023-02-15T14:59:12.651Z,99365.25
2023-02-15T15:01:40.719Z,99370.38
2023-02-15T15:04:12.758Z,99363.44
2023-02-15T15:06:43.168Z,99368.22
2023-02-15T15:09:43.181Z,99367.19
2023-02-15T15:12:21.823Z,99374.56
2023-02-15T15:14:51.723Z,99364.03
2023-02-15T15:17:33.508Z,99373.16
2023-02-15T15:20:08.352Z,99369.78
2023-02-15T15:22:35.929Z,99371.81
2023-02-15T15:25:05.698Z,99372.84
2023-02-15T15:27:55.052Z,99365.75
2023-02-15T15:30:21.872Z,99364.25
2023-02-15T15:32:54.689Z,99368.09
2023-02-15T15:35:33.389Z,99365.63
2023-02-15T15:38:22.380Z,99370.19
2023-02-15T15:41:16.190Z,99362.16
2023-02-15T15:44:01.266Z,99361.41
2023-02-15T15:46:42.954Z,99363.47
2023-02-15T15:49:18.809Z,99369.00
2023-02-15T15:51:46.897Z,99364.75
2023-02-15T15:54:16.485Z,99352.66
2023-02-15T15:56:48.059Z,99345.81
2023-02-15T15:59:21.130Z,99358.41
2023-02-15T16:01:48.945Z,99355.03
2023-02-15T16:04:26.311Z,99359.72
2023-02-15T16:06:53.441Z,99354.66
2023-02-15T16:09:21.616Z,99353.91
2023-02-15T16:11:51.509Z,99362.13
2023-02-15T16:14:32.238Z,99351.59
2023-02-15T16:17:02.002Z,99351.81
2023-02-15T16:19:33.406Z,99357.19
2023-02-15T16:22:02.020Z,99359.16
2023-02-15T16:24:47.062Z,99363.59
2023-02-15T16:27:44.545Z,99366.56
2023-02-15T16:30:39.455Z,99369.41
2023-02-15T16:33:15.601Z,99367.78
2023-02-15T16:35:57.210Z,99378.53
2023-02-15T16:38:48.358Z,99378.66
2023-02-15T16:41:18.367Z,99373.50
2023-02-15T16:43:48.497Z,99370.22
2023-02-15T16:46:29.507Z,99373.94
2023-02-15T16:49:00.033Z,99375.00
2023-02-15T16:51:29.505Z,99377.75
2023-02-15T16:53:58.535Z,99379.56
2023-02-15T16:56:29.373Z,99374.47
2023-02-15T16:58:57.473Z,99377.19
2023-02-15T17:01:27.239Z,99383.47
2023-02-15T17:04:13.308Z,99380.94
2023-02-15T17:06:40.027Z,99377.56
2023-02-15T17:09:19.260Z,99375.00
2023-02-15T17:11:46.169Z,99376.00
2023-02-15T17:14:18.946Z,99380.63
2023-02-15T17:16:50.687Z,99385.25
2023-02-15T17:19:25.742Z,99388.06
2023-02-15T17:21:56.624Z,99397.88
2023-02-15T17:24:33.387Z,99400.56
2023-02-15T17:27:06.361Z,99398.78
2023-02-15T17:29:33.770Z,99398.88
2023-02-15T17:32:02.727Z,99398.13
2023-02-15T17:34:51.322Z,99401.75
2023-02-15T17:37:46.625Z,99394.72
2023-02-15T17:40:19.195Z,99398.31
2023-02-15T17:42:45.919Z,99387.75
2023-02-15T17:45:15.099Z,99397.44
2023-02-15T17:47:42.550Z,99396.69
2023-02-15T17:50:19.490Z,99400.25
2023-02-15T17:52:46.253Z,99389.63
2023-02-15T17:55:37.756Z,99394.97
2023-02-15T17:58:12.925Z,99394.94
2023-02-15T18:01:02.438Z,99394.03
2023-02-15T18:03:58.751Z,99393.25
2023-02-15T18:06:44.550Z,99395.06
2023-02-15T18:09:32.284Z,99394.22
2023-02-15T18:11:59.036Z,99387.16
2023-02-15T18:14:26.462Z,99385.41
2023-02-15T18:16:54.744Z,99375.69
2023-02-15T18:19:24.305Z,99383.72
2023-02-15T18:21:52.829Z,99385.56
2023-02-15T18:24:24.193Z,99382.06
2023-02-15T18:26:51.990Z,99387.41
2023-02-15T18:29:18.932Z,99390.06
2023-02-15T18:31:51.326Z,99380.41
2023-02-15T18:34:24.033Z,99382.16
2023-02-15T18:36:51.772Z,99383.06
2023-02-15T18:39:36.317Z,99383.94
2023-02-15T18:42:04.848Z,99384.00
2023-02-15T18:44:31.658Z,99383.22
2023-02-15T18:46:58.272Z,99383.28
2023-02-15T18:49:24.970Z,99385.06
2023-02-15T18:51:53.131Z,99381.56
2023-02-15T18:54:22.846Z,99385.13
2023-02-15T18:56:55.471Z,99379.84
2023-02-15T18:59:24.591Z,99376.38
2023-02-15T19:01:52.301Z,99384.31
2023-02-15T19:04:18.987Z,99384.31
2023-02-15T19:06:49.059Z,99391.38
2023-02-15T19:09:19.902Z,99392.22
2023-02-15T19:11:51.736Z,99400.16
2023-02-15T19:14:32.540Z,99395.75
2023-02-15T19:17:00.606Z,99401.06
2023-02-15T19:19:27.933Z,99404.56
2023-02-15T19:21:55.394Z,99405.47
2023-02-15T19:24:33.576Z,99407.25
2023-02-15T19:27:00.395Z,99400.22
2023-02-15T19:29:30.311Z,99406.34
2023-02-15T19:31:58.102Z,99397.53
2023-02-15T19:34:24.991Z,99396.66
2023-02-15T19:36:54.792Z,99401.06
2023-02-15T19:39:26.111Z,99404.59
2023-02-15T19:41:53.232Z,99402.81
2023-02-15T19:44:20.626Z,99408.06
2023-02-15T19:46:47.417Z,99401.06
2023-02-15T19:49:14.078Z,99401.94
2023-02-15T19:51:41.146Z,99400.19
2023-02-15T19:54:31.532Z,99395.78
2023-02-15T19:56:58.303Z,99399.28
2023-02-15T19:59:30.938Z,99398.41
2023-02-15T20:01:58.212Z,99401.03
2023-02-15T20:04:26.022Z,99408.94
2023-02-15T20:06:55.774Z,99398.41
2023-02-15T20:09:26.505Z,99401.94
2023-02-15T20:11:53.728Z,99408.94
2023-02-15T20:14:21.033Z,99401.03
2023-02-15T20:16:47.876Z,99409.84
2023-02-15T20:19:14.608Z,99411.59
2023-02-15T20:21:43.818Z,99406.31
2023-02-15T20:24:19.290Z,99413.38
2023-02-15T20:26:46.333Z,99408.16
2023-02-15T20:29:15.200Z,99412.50
2023-02-15T20:31:43.096Z,99410.75
2023-02-15T20:34:10.655Z,99409.84
2023-02-15T20:36:38.747Z,99399.28
2023-02-15T20:39:16.585Z,99397.50
2023-02-15T20:41:47.730Z,99396.59
2023-02-15T20:44:20.684Z,99404.47
2023-02-15T20:46:49.199Z,99405.28
2023-02-15T20:49:16.161Z,99400.88
2023-02-15T20:51:44.368Z,99405.25
2023-02-15T20:54:17.774Z,99398.28
2023-02-15T20:56:45.763Z,99405.28
2023-02-15T20:59:24.740Z,99400.84
2023-02-15T21:01:55.428Z,99407.84
2023-02-15T21:04:27.233Z,99398.09
2023-02-15T21:06:53.958Z,99405.97
2023-02-15T21:09:20.571Z,99406.84
2023-02-15T21:11:50.252Z,99411.16
2023-02-15T21:14:19.487Z,99417.38
2023-02-15T21:16:48.360Z,99411.31
2023-02-15T21:19:23.586Z,99413.91
2023-02-15T21:21:53.225Z,99419.13
2023-02-15T21:24:29.036Z,99420.69
2023-02-15T21:26:58.273Z,99423.09
2023-02-15T21:29:28.013Z,99418.78
2023-02-15T21:31:55.200Z,99426.47
2023-02-15T21:34:22.200Z,99417.69
2023-02-15T21:36:50.594Z,99429.81
2023-02-15T21:39:25.913Z,99423.75
2023-02-15T21:42:13.207Z,99430.72
2023-02-15T21:44:59.194Z,99431.69
2023-02-15T21:47:49.030Z,99430.84
2023-02-15T21:50:42.645Z,99430.00
2023-02-15T21:53:21.172Z,99422.03
2023-02-15T21:55:48.667Z,99421.19
2023-02-15T21:58:21.070Z,99417.69
2023-02-15T22:00:48.389Z,99419.28
2023-02-15T22:03:15.206Z,99415.84
2023-02-15T22:05:41.871Z,99422.88
2023-02-15T22:08:13.317Z,99414.13
2023-02-15T22:10:41.237Z,99418.53
2023-02-15T22:13:17.235Z,99421.16
2023-02-15T22:15:47.084Z,99415.88
2023-02-15T22:18:33.849Z,99421.16
2023-02-15T22:21:01.991Z,99416.84
2023-02-15T22:23:29.080Z,99412.50
2023-02-15T22:26:05.162Z,99410.72
2023-02-15T22:28:34.594Z,99414.22
2023-02-15T22:31:01.866Z,99408.97
2023-02-15T22:33:31.643Z,99408.09
2023-02-15T22:35:59.249Z,99410.72
2023-02-15T22:38:26.248Z,99415.19
2023-02-15T22:40:56.815Z,99414.34
2023-02-15T22:43:29.413Z,99411.69
2023-02-15T22:46:01.825Z,99412.66
2023-02-15T22:48:28.755Z,99415.34
2023-02-15T22:50:55.412Z,99412.72
2023-02-15T22:53:22.650Z,99413.63
2023-02-15T22:55:49.891Z,99417.09
2023-02-15T22:58:20.617Z,99422.38
2023-02-15T23:00:47.447Z,99410.06
2023-02-15T23:03:16.833Z,99409.00
2023-02-15T23:05:43.854Z,99407.03
2023-02-15T23:08:11.385Z,99412.22
2023-02-15T23:10:39.319Z,99418.28
2023-02-15T23:13:25.970Z,99417.41
2023-02-15T23:15:58.727Z,99418.28
2023-02-15T23:18:29.503Z,99430.56
2023-02-15T23:21:10.106Z,99421.81
2023-02-15T23:23:39.981Z,99428.78
2023-02-15T23:26:22.905Z,99419.06
2023-02-15T23:28:50.446Z,99423.41
2023-02-15T23:31:21.857Z,99423.28
2023-02-15T23:33:48.986Z,99420.53
2023-02-15T23:36:28.091Z,99430.84
2023-02-15T23:38:56.609Z,99427.22
2023-02-15T23:41:27.450Z,99431.53
2023-02-15T23:43:58.137Z,99434.91
2023-02-15T23:46:26.759Z,99436.56
2023-02-15T23:48:54.801Z,99443.59
2023-02-15T23:51:27.345Z,99450.53
2023-02-15T23:53:53.987Z,99443.38
2023-02-15T23:56:20.673Z,99448.63
2023-02-15T23:58:48.141Z,99451.19
